createdAt,value
2019-03-28T00:01:08.052Z,6.43
2019-03-28T00:03:38.717Z,6.97
2019-03-28T00:06:09.281Z,7.13
2019-03-28T00:08:39.925Z,7.37
2019-03-28T00:11:10.376Z,6.47
2019-03-28T00:13:40.926Z,7.30
2019-03-28T00:16:11.430Z,5.57
2019-03-28T00:18:42.299Z,7.47
2019-03-28T00:21:12.843Z,5.87
2019-03-28T00:24:02.321Z,7.63
2019-03-28T00:26:32.940Z,6.87
2019-03-28T00:29:03.517Z,7.10
2019-03-28T00:31:34.856Z,5.50
2019-03-28T00:34:06.102Z,7.17
2019-03-28T00:36:36.882Z,5.50
2019-03-28T00:39:08.402Z,6.50
2019-03-28T00:41:38.936Z,6.73
2019-03-28T00:44:09.450Z,7.47
2019-03-28T00:46:40.103Z,5.97
2019-03-28T00:49:10.698Z,5.77
2019-03-28T00:51:43.127Z,6.80
2019-03-28T00:54:13.423Z,6.87
2019-03-28T00:56:47.335Z,7.30
2019-03-28T00:59:16.177Z,6.00
2019-03-28T01:01:46.738Z,6.73
2019-03-28T01:04:17.291Z,6.90
2019-03-28T01:06:47.979Z,7.07
2019-03-28T01:09:18.490Z,8.27
2019-03-28T01:11:49.018Z,6.13
2019-03-28T01:14:19.564Z,7.50
2019-03-28T01:16:50.012Z,6.43
2019-03-28T01:19:20.557Z,7.47
2019-03-28T01:21:51.178Z,7.57
2019-03-28T01:24:21.721Z,7.43
2019-03-28T01:26:57.600Z,8.43
2019-03-28T01:29:24.645Z,10.20
2019-03-28T01:31:55.157Z,7.77
2019-03-28T01:34:25.654Z,6.80
2019-03-28T01:36:56.264Z,10.53
2019-03-28T01:39:26.783Z,8.53
2019-03-28T01:41:57.404Z,7.30
2019-03-28T01:44:27.857Z,7.27
2019-03-28T01:46:58.656Z,8.03
2019-03-28T01:49:29.299Z,8.20
2019-03-28T01:51:59.718Z,7.77
2019-03-28T01:54:30.205Z,6.53
2019-03-28T01:57:10.358Z,6.10
2019-03-28T01:59:33.058Z,9.03
2019-03-28T02:02:03.765Z,6.97
2019-03-28T02:04:34.320Z,6.87
2019-03-28T02:07:04.903Z,7.03
2019-03-28T02:09:35.317Z,7.37
2019-03-28T02:12:06.069Z,9.23
2019-03-28T02:14:36.560Z,7.43
2019-03-28T02:17:06.987Z,8.03
2019-03-28T02:19:37.650Z,10.87
2019-03-28T02:22:08.128Z,8.27
2019-03-28T02:24:38.793Z,7.77
2019-03-28T02:27:09.343Z,7.73
2019-03-28T02:29:39.935Z,7.53
2019-03-28T02:32:10.583Z,10.30
2019-03-28T02:34:41.207Z,9.23
2019-03-28T02:37:11.796Z,6.63
2019-03-28T02:39:42.366Z,8.17
2019-03-28T02:42:12.796Z,7.67
2019-03-28T02:44:43.311Z,7.60
2019-03-28T02:47:13.880Z,7.50
2019-03-28T02:49:45.105Z,8.03
2019-03-28T02:52:16.323Z,9.40
2019-03-28T02:54:47.934Z,10.73
2019-03-28T02:57:18.352Z,9.30
2019-03-28T02:59:48.950Z,8.97
2019-03-28T03:02:19.678Z,7.90
2019-03-28T03:04:50.263Z,9.00
2019-03-28T03:07:20.795Z,7.90
2019-03-28T03:09:51.595Z,8.17
2019-03-28T03:12:22.251Z,8.77
2019-03-28T03:14:52.933Z,8.77
2019-03-28T03:17:23.516Z,8.27
2019-03-28T03:19:53.962Z,8.97
2019-03-28T03:22:24.487Z,9.30
2019-03-28T03:24:55.108Z,11.27
2019-03-28T03:27:25.557Z,8.17
2019-03-28T03:29:56.103Z,9.57
2019-03-28T03:32:26.765Z,7.33
2019-03-28T03:34:57.352Z,7.70
2019-03-28T03:37:28.033Z,7.77
2019-03-28T03:39:58.597Z,9.20
2019-03-28T03:42:29.136Z,7.13
2019-03-28T03:44:59.682Z,8.07
2019-03-28T03:47:30.335Z,8.50
2019-03-28T03:50:00.874Z,7.87
2019-03-28T03:52:31.340Z,7.50
2019-03-28T03:55:01.923Z,7.33
2019-03-28T03:57:32.462Z,9.10
2019-03-28T04:00:03.627Z,7.43
2019-03-28T04:02:34.464Z,8.27
2019-03-28T04:05:05.503Z,8.27
2019-03-28T04:07:36.257Z,7.93
2019-03-28T04:10:07.183Z,8.43
2019-03-28T04:12:37.931Z,9.17
2019-03-28T04:15:08.616Z,7.67
2019-03-28T04:17:39.346Z,8.00
2019-03-28T04:20:10.630Z,9.33
2019-03-28T04:22:41.167Z,8.30
2019-03-28T04:25:11.835Z,8.73
2019-03-28T04:27:42.463Z,7.67
2019-03-28T04:30:13.155Z,10.60
2019-03-28T04:32:43.787Z,8.07
2019-03-28T04:35:14.472Z,10.23
2019-03-28T04:37:44.991Z,9.07
2019-03-28T04:40:15.845Z,7.83
2019-03-28T04:42:46.534Z,9.50
2019-03-28T04:45:17.262Z,8.77
2019-03-28T04:47:47.802Z,8.43
2019-03-28T04:50:18.382Z,6.80
2019-03-28T04:52:48.983Z,8.03
2019-03-28T04:55:19.578Z,8.80
2019-03-28T04:57:50.207Z,7.00
2019-03-28T05:00:21.443Z,7.90
2019-03-28T05:02:51.991Z,6.43
2019-03-28T05:05:22.609Z,6.83
2019-03-28T05:07:53.198Z,8.03
2019-03-28T05:10:23.917Z,8.47
2019-03-28T05:12:54.546Z,8.43
2019-03-28T05:15:25.126Z,8.17
2019-03-28T05:17:55.845Z,7.33
2019-03-28T05:20:26.498Z,7.40
2019-03-28T05:22:56.986Z,7.80
2019-03-28T05:25:27.612Z,8.63
2019-03-28T05:27:58.221Z,10.13
2019-03-28T05:30:28.858Z,7.30
2019-03-28T05:32:59.439Z,8.67
2019-03-28T05:35:30.115Z,7.80
2019-03-28T05:38:00.753Z,9.20
2019-03-28T05:40:31.418Z,11.47
2019-03-28T05:43:01.981Z,9.97
2019-03-28T05:45:32.528Z,8.07
2019-03-28T05:48:03.196Z,7.27
2019-03-28T05:50:33.808Z,8.10
2019-03-28T05:53:04.351Z,7.07
2019-03-28T05:55:34.888Z,5.87
2019-03-28T05:58:05.514Z,7.33
2019-03-28T06:00:38.872Z,6.60
2019-03-28T06:03:08.065Z,7.73
2019-03-28T06:05:38.557Z,8.17
2019-03-28T06:08:09.139Z,7.30
2019-03-28T06:10:39.605Z,8.50
2019-03-28T06:13:10.169Z,7.97
2019-03-28T06:15:41.187Z,9.07
2019-03-28T06:18:11.906Z,9.13
2019-03-28T06:20:42.462Z,7.33
2019-03-28T06:23:13.345Z,7.67
2019-03-28T06:25:43.837Z,7.53
2019-03-28T06:28:15.427Z,8.23
2019-03-28T06:30:45.886Z,7.87
2019-03-28T06:33:16.359Z,9.17
2019-03-28T06:35:46.963Z,7.57
2019-03-28T06:38:17.489Z,5.67
2019-03-28T06:40:47.974Z,6.90
2019-03-28T06:43:18.682Z,7.80
2019-03-28T06:45:49.282Z,8.17
2019-03-28T06:48:19.777Z,7.40
2019-03-28T06:50:50.353Z,8.93
2019-03-28T06:53:20.809Z,6.67
2019-03-28T06:55:51.599Z,8.07
2019-03-28T06:58:22.020Z,9.10
2019-03-28T07:00:52.698Z,7.63
2019-03-28T07:03:23.243Z,9.80
2019-03-28T07:05:53.742Z,8.13
2019-03-28T07:08:24.205Z,7.73
2019-03-28T07:10:57.803Z,8.57
2019-03-28T07:13:26.895Z,7.40
2019-03-28T07:15:57.321Z,7.43
2019-03-28T07:18:27.841Z,8.47
2019-03-28T07:20:58.270Z,9.47
2019-03-28T07:23:28.754Z,6.97
2019-03-28T07:25:59.386Z,8.90
2019-03-28T07:28:29.862Z,8.20
2019-03-28T07:31:00.419Z,8.50
2019-03-28T07:33:31.021Z,9.40
2019-03-28T07:36:01.625Z,5.37
2019-03-28T07:38:32.129Z,5.73
2019-03-28T07:41:02.741Z,6.60
2019-03-28T07:43:33.315Z,7.03
2019-03-28T07:46:03.829Z,5.00
2019-03-28T07:48:34.462Z,6.43
2019-03-28T07:51:05.060Z,6.23
2019-03-28T07:53:35.703Z,7.60
2019-03-28T07:56:06.348Z,8.50
2019-03-28T07:58:36.826Z,5.03
2019-03-28T08:01:07.318Z,5.47
2019-03-28T08:03:39.926Z,6.43
2019-03-28T08:06:12.585Z,6.97
2019-03-28T08:08:44.170Z,4.60
2019-03-28T08:11:14.611Z,5.43
2019-03-28T08:13:45.206Z,6.93
2019-03-28T08:16:15.755Z,6.23
2019-03-28T08:18:46.194Z,5.53
2019-03-28T08:21:16.786Z,8.03
2019-03-28T08:23:47.330Z,6.70
2019-03-28T08:26:18.071Z,6.07
2019-03-28T08:28:48.698Z,6.53
2019-03-28T08:31:19.143Z,5.63
2019-03-28T08:33:49.903Z,7.60
2019-03-28T08:36:20.621Z,6.67
2019-03-28T08:38:52.227Z,5.77
2019-03-28T08:41:22.819Z,5.47
2019-03-28T08:43:53.326Z,4.97
2019-03-28T08:46:23.787Z,5.53
2019-03-28T08:48:54.239Z,4.27
2019-03-28T08:51:27.372Z,8.73
2019-03-28T08:53:56.977Z,5.60
2019-03-28T08:56:27.447Z,6.67
2019-03-28T08:58:58.001Z,7.53
2019-03-28T09:01:28.576Z,5.20
2019-03-28T09:03:59.163Z,5.80
2019-03-28T09:06:29.863Z,6.90
2019-03-28T09:09:00.321Z,5.70
2019-03-28T09:11:30.874Z,4.40
2019-03-28T09:14:01.524Z,4.40
2019-03-28T09:16:32.060Z,4.73
2019-03-28T09:19:02.586Z,5.60
2019-03-28T09:21:33.107Z,3.97
2019-03-28T09:24:03.666Z,5.33
2019-03-28T09:26:34.079Z,5.10
2019-03-28T09:29:04.695Z,4.90
2019-03-28T09:31:35.208Z,4.10
2019-03-28T09:34:05.771Z,4.57
2019-03-28T09:36:36.358Z,4.83
2019-03-28T09:39:09.370Z,3.30
2019-03-28T09:41:40.018Z,5.57
2019-03-28T09:44:10.499Z,3.20
2019-03-28T09:46:40.987Z,3.90
2019-03-28T09:49:11.723Z,4.40
2019-03-28T09:51:42.341Z,4.00
2019-03-28T09:54:12.847Z,4.87
2019-03-28T09:56:43.365Z,3.17
2019-03-28T09:59:13.936Z,3.43
2019-03-28T10:01:44.498Z,3.07
2019-03-28T10:04:15.271Z,3.93
2019-03-28T10:06:45.968Z,3.53
2019-03-28T10:09:16.564Z,4.10
2019-03-28T10:11:47.160Z,4.73
2019-03-28T10:14:17.702Z,3.93
2019-03-28T10:16:48.261Z,4.80
2019-03-28T10:19:18.962Z,3.10
2019-03-28T10:21:49.580Z,4.90
2019-03-28T10:24:20.104Z,3.73
2019-03-28T10:26:50.719Z,5.40
2019-03-28T10:29:21.328Z,3.50
2019-03-28T10:31:52.109Z,5.30
2019-03-28T10:34:22.927Z,4.43
2019-03-28T10:36:53.544Z,4.17
2019-03-28T10:39:24.126Z,5.17
2019-03-28T10:41:55.081Z,7.27
2019-03-28T10:44:25.712Z,4.60
2019-03-28T10:46:56.453Z,4.03
2019-03-28T10:49:27.260Z,3.50
2019-03-28T10:51:57.929Z,3.60
2019-03-28T10:54:28.435Z,4.67
2019-03-28T10:57:12.493Z,4.30
2019-03-28T10:59:31.214Z,5.27
2019-03-28T11:02:01.774Z,3.63
2019-03-28T11:04:32.449Z,5.00
2019-03-28T11:07:03.123Z,3.83
2019-03-28T11:09:34.542Z,4.67
2019-03-28T11:12:05.526Z,4.17
2019-03-28T11:14:36.165Z,4.13
2019-03-28T11:17:06.705Z,3.33
2019-03-28T11:19:37.297Z,4.70
2019-03-28T11:22:07.843Z,3.10
2019-03-28T11:24:38.367Z,4.83
2019-03-28T11:27:09.061Z,4.87
2019-03-28T11:29:39.745Z,3.57
2019-03-28T11:32:10.399Z,3.83
2019-03-28T11:34:41.076Z,4.47
2019-03-28T11:37:25.460Z,3.27
2019-03-28T11:39:43.838Z,4.67
2019-03-28T11:42:14.512Z,4.77
2019-03-28T11:44:45.130Z,3.57
2019-03-28T11:47:15.573Z,3.20
2019-03-28T11:49:46.135Z,4.73
2019-03-28T11:52:16.701Z,4.03
2019-03-28T11:54:47.222Z,2.93
2019-03-28T11:57:17.738Z,3.30
2019-03-28T11:59:48.355Z,3.40
2019-03-28T12:02:20.553Z,3.37
2019-03-28T12:04:51.350Z,5.07
2019-03-28T12:07:21.808Z,3.27
2019-03-28T12:09:52.443Z,3.83
2019-03-28T12:12:23.143Z,4.63
2019-03-28T12:14:53.812Z,3.70
2019-03-28T12:17:24.409Z,5.30
2019-03-28T12:19:56.112Z,6.77
2019-03-28T12:22:26.758Z,3.40
2019-03-28T12:24:57.328Z,3.87
2019-03-28T12:27:27.895Z,3.53
2019-03-28T12:29:58.519Z,4.20
2019-03-28T12:32:29.397Z,4.80
2019-03-28T12:35:00.015Z,3.17
2019-03-28T12:37:30.511Z,3.43
2019-03-28T12:40:01.248Z,3.77
2019-03-28T12:42:31.736Z,3.03
2019-03-28T12:45:02.468Z,3.80
2019-03-28T12:47:42.301Z,3.17
2019-03-28T12:50:05.843Z,3.33
2019-03-28T12:52:36.496Z,3.93
2019-03-28T12:55:07.316Z,3.43
2019-03-28T12:57:38.025Z,3.00
2019-03-28T13:00:09.087Z,3.97
2019-03-28T13:02:39.771Z,5.33
2019-03-28T13:05:12.003Z,2.83
2019-03-28T13:07:42.490Z,5.23
2019-03-28T13:10:13.867Z,5.50
2019-03-28T13:12:44.448Z,4.07
2019-03-28T13:15:15.162Z,3.57
2019-03-28T13:17:45.728Z,4.10
2019-03-28T13:20:16.665Z,3.97
2019-03-28T13:22:47.186Z,4.27
2019-03-28T13:25:17.786Z,3.50
2019-03-28T13:27:48.392Z,2.90
2019-03-28T13:30:19.298Z,3.00
2019-03-28T13:32:49.968Z,3.87
2019-03-28T13:35:20.567Z,3.00
2019-03-28T13:37:51.183Z,3.57
2019-03-28T13:40:21.883Z,2.67
2019-03-28T13:42:53.087Z,3.67
2019-03-28T13:45:23.924Z,4.57
2019-03-28T13:47:54.539Z,4.23
2019-03-28T13:50:25.419Z,3.17
2019-03-28T13:52:56.038Z,5.90
2019-03-28T13:55:26.646Z,2.77
2019-03-28T13:57:57.290Z,3.00
2019-03-28T14:00:35.200Z,2.73
2019-03-28T14:03:06.120Z,3.10
2019-03-28T14:05:36.735Z,2.97
2019-03-28T14:08:07.372Z,2.77
2019-03-28T14:10:38.244Z,4.30
2019-03-28T14:13:08.768Z,3.73
2019-03-28T14:15:39.248Z,3.70
2019-03-28T14:18:09.913Z,2.90
2019-03-28T14:20:40.695Z,3.10
2019-03-28T14:23:11.349Z,3.17
2019-03-28T14:25:42.079Z,4.50
2019-03-28T14:28:12.528Z,2.90
2019-03-28T14:30:43.228Z,4.13
2019-03-28T14:33:15.864Z,3.23
2019-03-28T14:35:46.154Z,4.63
2019-03-28T14:38:16.871Z,5.00
2019-03-28T14:40:47.478Z,2.70
2019-03-28T14:43:18.231Z,2.90
2019-03-28T14:45:48.833Z,3.80
2019-03-28T14:48:19.348Z,4.07
2019-03-28T14:50:49.903Z,3.33
2019-03-28T14:53:22.224Z,3.93
2019-03-28T14:55:53.147Z,3.17
2019-03-28T14:58:25.133Z,3.57
2019-03-28T15:00:56.085Z,4.80
2019-03-28T15:03:27.422Z,3.97
2019-03-28T15:05:58.702Z,2.93
2019-03-28T15:08:29.563Z,3.20
2019-03-28T15:11:00.031Z,5.77
2019-03-28T15:13:30.857Z,2.50
2019-03-28T15:16:01.399Z,2.90
2019-03-28T15:18:31.830Z,2.60
2019-03-28T15:21:02.574Z,2.50
2019-03-28T15:23:33.239Z,2.73
2019-03-28T15:26:03.753Z,4.37
2019-03-28T15:28:34.393Z,3.20
2019-03-28T15:31:04.949Z,3.23
2019-03-28T15:33:39.939Z,3.20
2019-03-28T15:36:08.807Z,2.80
2019-03-28T15:38:39.917Z,3.23
2019-03-28T15:41:10.858Z,4.87
2019-03-28T15:43:41.386Z,2.30
2019-03-28T15:46:12.081Z,2.33
2019-03-28T15:48:42.502Z,2.90
2019-03-28T15:51:13.296Z,3.67
2019-03-28T15:53:44.054Z,3.77
2019-03-28T15:56:14.491Z,3.73
2019-03-28T15:58:45.054Z,2.43
2019-03-28T16:01:15.704Z,3.03
2019-03-28T16:03:52.772Z,2.80
2019-03-28T16:06:18.526Z,3.20
2019-03-28T16:08:49.006Z,4.93
2019-03-28T16:11:19.651Z,2.70
2019-03-28T16:13:50.240Z,3.60
2019-03-28T16:16:20.959Z,4.93
2019-03-28T16:18:51.486Z,4.30
2019-03-28T16:21:21.963Z,3.20
2019-03-28T16:23:52.729Z,3.30
2019-03-28T16:26:23.217Z,2.30
2019-03-28T16:28:56.349Z,2.33
2019-03-28T16:31:26.050Z,2.47
2019-03-28T16:34:06.227Z,2.60
2019-03-28T16:36:28.766Z,3.63
2019-03-28T16:38:59.494Z,2.63
2019-03-28T16:41:30.126Z,2.33
2019-03-28T16:44:00.691Z,2.83
2019-03-28T16:46:31.559Z,4.30
2019-03-28T16:49:02.273Z,2.67
2019-03-28T16:51:32.902Z,2.67
2019-03-28T16:54:03.456Z,2.57
2019-03-28T16:56:34.139Z,2.33
2019-03-28T16:59:04.843Z,2.67
2019-03-28T17:01:35.455Z,2.33
2019-03-28T17:04:19.711Z,2.53
2019-03-28T17:06:39.263Z,2.20
2019-03-28T17:09:10.011Z,2.63
2019-03-28T17:11:40.641Z,3.07
2019-03-28T17:14:11.524Z,2.80
2019-03-28T17:16:42.798Z,3.60
2019-03-28T17:19:13.517Z,2.03
2019-03-28T17:21:44.125Z,2.33
2019-03-28T17:24:14.886Z,2.53
2019-03-28T17:26:45.374Z,2.40
2019-03-28T17:29:16.064Z,2.73
2019-03-28T17:31:46.639Z,2.40
2019-03-28T17:34:17.360Z,2.97
2019-03-28T17:36:47.948Z,2.50
2019-03-28T17:39:18.560Z,2.80
2019-03-28T17:41:49.124Z,2.80
2019-03-28T17:44:19.750Z,2.73
2019-03-28T17:46:50.429Z,2.17
2019-03-28T17:49:21.210Z,2.20
2019-03-28T17:51:51.904Z,2.30
2019-03-28T17:54:22.496Z,2.67
2019-03-28T17:56:53.161Z,2.43
2019-03-28T17:59:23.659Z,3.57
2019-03-28T18:01:54.279Z,2.33
2019-03-28T18:04:24.725Z,2.63
2019-03-28T18:06:55.369Z,2.90
2019-03-28T18:09:26.143Z,2.30
2019-03-28T18:11:56.816Z,4.70
2019-03-28T18:14:27.547Z,2.20
2019-03-28T18:16:58.130Z,2.20
2019-03-28T18:19:28.922Z,2.37
2019-03-28T18:22:03.605Z,2.27
2019-03-28T18:24:32.527Z,3.40
2019-03-28T18:27:03.131Z,3.97
2019-03-28T18:29:35.965Z,5.80
2019-03-28T18:32:07.114Z,5.13
2019-03-28T18:34:37.686Z,6.37
2019-03-28T18:37:08.318Z,5.23
2019-03-28T18:39:39.129Z,4.83
2019-03-28T18:42:10.084Z,6.00
2019-03-28T18:44:41.684Z,4.47
2019-03-28T18:47:12.701Z,3.23
2019-03-28T18:49:43.407Z,3.27
2019-03-28T18:52:14.172Z,8.73
2019-03-28T18:54:44.925Z,8.57
2019-03-28T18:57:15.699Z,10.93
2019-03-28T18:59:46.421Z,12.20
2019-03-28T19:02:17.126Z,15.77
2019-03-28T19:04:47.786Z,17.20
2019-03-28T19:07:18.438Z,16.27
2019-03-28T19:09:49.098Z,21.00
2019-03-28T19:12:19.887Z,17.73
2019-03-28T19:14:50.611Z,21.93
2019-03-28T19:17:21.357Z,22.87
2019-03-28T19:19:52.235Z,23.83
2019-03-28T19:22:23.286Z,25.83
2019-03-28T19:24:54.305Z,26.93
2019-03-28T19:27:24.930Z,26.50
2019-03-28T19:29:55.560Z,28.23
2019-03-28T19:32:29.607Z,32.00
2019-03-28T19:34:59.170Z,30.43
2019-03-28T19:37:31.267Z,34.57
2019-03-28T19:40:02.853Z,30.00
2019-03-28T19:42:34.043Z,35.67
2019-03-28T19:45:05.107Z,42.27
2019-03-28T19:47:35.629Z,47.03
2019-03-28T19:50:07.840Z,49.87
2019-03-28T19:52:38.902Z,55.00
2019-03-28T19:55:11.346Z,61.27
2019-03-28T19:57:42.054Z,67.53
2019-03-28T20:00:12.706Z,73.27
2019-03-28T20:02:43.437Z,80.70
2019-03-28T20:05:14.239Z,102.70
2019-03-28T20:07:45.935Z,109.23
2019-03-28T20:10:18.436Z,105.80
2019-03-28T20:12:49.541Z,103.80
2019-03-28T20:15:20.674Z,99.53
2019-03-28T20:17:51.734Z,86.53
2019-03-28T20:20:22.526Z,87.03
2019-03-28T20:22:53.278Z,82.73
2019-03-28T20:25:24.239Z,78.03
2019-03-28T20:27:54.846Z,70.07
2019-03-28T20:30:25.737Z,70.07
2019-03-28T20:32:56.534Z,74.33
2019-03-28T20:35:27.502Z,69.90
2019-03-28T20:37:58.323Z,62.40
2019-03-28T20:40:28.831Z,61.67
2019-03-28T20:43:00.219Z,59.00
2019-03-28T20:45:31.706Z,46.17
2019-03-28T20:48:02.305Z,52.63
2019-03-28T20:50:33.125Z,57.40
2019-03-28T20:53:03.926Z,61.47
2019-03-28T20:55:34.597Z,63.53
2019-03-28T20:58:05.326Z,67.47
2019-03-28T21:00:39.461Z,77.00
2019-03-28T21:03:11.530Z,69.80
2019-03-28T21:05:42.443Z,72.93
2019-03-28T21:08:13.353Z,72.67
2019-03-28T21:10:44.217Z,78.20
2019-03-28T21:13:14.825Z,66.07
2019-03-28T21:15:45.932Z,85.67
2019-03-28T21:18:16.811Z,86.53
2019-03-28T21:20:47.562Z,96.17
2019-03-28T21:23:18.225Z,97.20
2019-03-28T21:25:49.080Z,101.30
2019-03-28T21:28:19.802Z,89.83
2019-03-28T21:30:50.388Z,84.83
2019-03-28T21:33:20.931Z,84.93
2019-03-28T21:35:51.398Z,71.70
2019-03-28T21:38:22.015Z,75.37
2019-03-28T21:40:53.166Z,78.70
2019-03-28T21:43:24.597Z,78.03
2019-03-28T21:45:55.102Z,75.00
2019-03-28T21:48:25.590Z,72.60
2019-03-28T21:50:56.141Z,69.73
2019-03-28T21:53:26.704Z,68.73
2019-03-28T21:55:57.729Z,59.63
2019-03-28T21:58:28.368Z,63.97
2019-03-28T22:00:58.960Z,54.37
2019-03-28T22:03:29.541Z,59.20
2019-03-28T22:06:00.040Z,57.10
2019-03-28T22:08:30.740Z,53.03
2019-03-28T22:11:01.533Z,48.53
2019-03-28T22:13:32.120Z,58.53
2019-03-28T22:16:02.770Z,46.73
2019-03-28T22:18:33.947Z,46.33
2019-03-28T22:21:04.732Z,51.90
2019-03-28T22:23:35.258Z,46.97
2019-03-28T22:26:05.967Z,41.63
2019-03-28T22:28:37.944Z,33.03
2019-03-28T22:31:09.835Z,45.70
2019-03-28T22:33:40.250Z,42.23
2019-03-28T22:36:10.833Z,37.07
2019-03-28T22:38:41.394Z,39.70
2019-03-28T22:41:12.111Z,40.53
2019-03-28T22:43:42.734Z,40.93
2019-03-28T22:46:14.110Z,36.27
2019-03-28T22:48:44.624Z,35.00
2019-03-28T22:51:15.806Z,34.40
2019-03-28T22:53:46.526Z,39.10
2019-03-28T22:56:17.119Z,37.20
2019-03-28T22:58:47.918Z,34.27
2019-03-28T23:01:19.122Z,32.07
2019-03-28T23:03:49.705Z,27.97
2019-03-28T23:06:20.338Z,32.50
2019-03-28T23:08:51.122Z,29.47
2019-03-28T23:11:21.585Z,26.70
2019-03-28T23:13:52.857Z,26.30
2019-03-28T23:16:23.638Z,27.73
2019-03-28T23:18:54.150Z,25.67
2019-03-28T23:21:24.569Z,25.03
2019-03-28T23:23:55.172Z,29.20
2019-03-28T23:26:25.759Z,23.53
2019-03-28T23:28:56.365Z,24.13
2019-03-28T23:31:26.813Z,26.77
2019-03-28T23:33:57.277Z,21.33
2019-03-28T23:36:27.837Z,23.80
2019-03-28T23:38:58.290Z,22.80
2019-03-28T23:41:28.782Z,20.83
2019-03-28T23:43:59.353Z,20.80
2019-03-28T23:46:29.892Z,16.83
2019-03-28T23:49:00.455Z,18.60
2019-03-28T23:51:30.916Z,18.10
2019-03-28T23:54:01.493Z,21.60
2019-03-28T23:56:31.979Z,16.60
2019-03-28T23:59:02.517Z,19.87
